Aérodrome :
LOGIN :

S'inscrire | Disclaimer

   EN    FR    IT 

 










Légende :    VFR   VFR Marginal   IFR   IFR Intensif   IFR Très Intensif
Visi : 
Plafond : 
>= 8 km
>= 3000ft
5 à 8 km
1000 à 3000 ft
1500m à 5 km
500 à 1000 ft
800 à 1500m
200 à 500 ft
< 800m
< 200 ft
Symboles :   Orages  Brouillard  Fortes neiges  Fortes précipitations  Vent > 20 kt
SIGMETs :   Divers  Orages  Givrage  Turbulence  Onde Orograph.  Cendres Volcan.






- Altitude de l'aérodrome : 218 ft
- Code IATA : LBG


LFPB - Paris / Le Bourget

DERNIER METAR :
  • 301130Z AUTO 23006KT 9999 OVC010 07/06 Q1026 TEMPO 3000 -DZ BECMG 31010KT BKN025

METARs EXPIRÉS :
  • 301100Z AUTO 23009KT 9999 OVC008 07/06 Q1026 TEMPO 3000 -DZ OVC004
  • 301030Z AUTO 24008KT 9000 BKN008 OVC013 06/05 Q1026 TEMPO 3000 -DZ OVC004
  • 301000Z AUTO 24009KT 210V270 5000 BR BKN010 OVC015 06/05 Q1026 TEMPO OVC004
  • 300930Z AUTO 24009KT 210V270 9999 OVC011 06/05 Q1026 TEMPO 3000 -DZ OVC004
  • 300900Z AUTO 24009KT 210V270 7000 BKN009 OVC013 05/05 Q1026 TEMPO 3000 -DZ OVC004

TAF TAF LFPB
Valide du 30 à 06h jusqu'au 31 à 06h UTC


300500Z 3006/3106 24010KT 9999 SCT012 BKN030
BECMG 3006/3008 OVC008
PROB40
TEMPO 3008/3013 3000 -DZ OVC004
BECMG 3013/3015 31010KT BKN025
BECMG 3102/3104 3000 BR
ATIS : +33 1 48 62 43 92



MET'MAP, la Météo Aéronautique d'un coup d'oeil ! - Copyright ORBIFLY Décembre 2007 - Disclaimer

ORBIFLY MET'MAP TEAM :

Programmation & Développement : Alexandra Zaïnal
Sur une idée originale de : Baudouin d'Aumeries
Soutien technique & logistique : Manuel Goepfert
Assistance : Marc-Olivier Méhu




SOURCES & CREDITS :

   NOAA